Time;durP1;ratioP1;P1;durP2;ratioP2;P2;SDS_P1;SDS_P2;PMS_P1;PMS_P2;Temp;Humidity;BMP_temperature;BMP_pressure;BME280_temperature;BME280_humidity;BME280_pressure;Samples;Min_cycle;Max_cycle;Signal;HPM_P1;HPM_P2
2023/09/10 00:01:05;;;;;;;7.07;5.17;;;16.30;8.90;;;;;;5093208;28;20175;-87
2023/09/10 00:03:34;;;;;;;5.63;5.13;;;16.40;1.00;;;;;;5094978;28;20179;-88
2023/09/10 00:06:01;;;;;;;5.73;5.00;;;16.40;3.80;;;;;;5093815;28;20173;-87
2023/09/10 00:08:27;;;;;;;6.53;5.20;;;16.30;78.70;;;;;;5095149;28;20199;-87
2023/09/10 00:10:54;;;;;;;5.90;5.23;;;16.30;72.70;;;;;;5093238;28;20173;-88
2023/09/10 00:13:20;;;;;;;5.80;5.20;;;16.40;18.10;;;;;;5094723;28;20172;-89
2023/09/10 00:15:45;;;;;;;6.00;5.40;;;16.20;2.60;;;;;;5094886;28;20318;-88
2023/09/10 00:18:11;;;;;;;5.60;5.10;;;16.30;99.90;;;;;;5093701;28;20196;-88
2023/09/10 00:20:37;;;;;;;7.40;5.30;;;16.30;85.80;;;;;;5092807;28;20169;-87
2023/09/10 00:23:03;;;;;;;5.97;5.37;;;16.30;99.90;;;;;;5094397;28;20183;-87
2023/09/10 00:25:29;;;;;;;6.20;5.20;;;16.20;99.90;;;;;;5093242;28;20302;-88
2023/09/10 00:27:58;;;;;;;6.80;5.30;;;16.30;81.90;;;;;;5094381;28;20219;-88
2023/09/10 00:30:26;;;;;;;5.93;5.43;;;16.20;99.90;;;;;;5094145;28;20204;-87
2023/09/10 00:32:51;;;;;;;5.83;5.33;;;16.30;99.90;;;;;;5093321;28;20196;-88
2023/09/10 00:35:17;;;;;;;6.67;5.43;;;16.40;99.90;;;;;;5093306;28;20179;-87
2023/09/10 00:37:42;;;;;;;5.87;5.27;;;16.50;38.20;;;;;;5094285;28;20220;-87
2023/09/10 00:40:09;;;;;;;6.13;5.27;;;16.50;1.00;;;;;;5092593;28;20172;-87
2023/09/10 00:42:35;;;;;;;6.13;5.53;;;16.60;1.00;;;;;;5093874;28;20188;-87
2023/09/10 00:45:01;;;;;;;5.83;5.00;;;16.60;1.00;;;;;;5094231;28;20176;-87
2023/09/10 00:47:27;;;;;;;5.80;5.10;;;16.50;1.00;;;;;;5092936;28;20192;-88
2023/09/10 00:49:54;;;;;;;5.37;4.87;;;16.50;1.00;;;;;;5093732;28;20172;-87
2023/09/10 00:52:21;;;;;;;6.83;5.37;;;16.40;1.00;;;;;;5092738;28;20223;-87
2023/09/10 00:54:48;;;;;;;5.53;4.93;;;16.20;1.00;;;;;;5093023;28;20259;-88
2023/09/10 00:57:15;;;;;;;7.23;5.73;;;16.10;1.00;;;;;;5093876;28;20192;-87
2023/09/10 00:59:42;;;;;;;6.00;5.40;;;16.20;1.00;;;;;;5092170;28;20168;-88
2023/09/10 01:02:09;;;;;;;6.47;5.00;;;16.30;1.00;;;;;;5092842;28;20181;-86
2023/09/10 01:04:35;;;;;;;5.70;5.20;;;16.40;1.00;;;;;;5092699;28;20183;-88
2023/09/10 01:07:01;;;;;;;6.20;5.37;;;16.50;1.00;;;;;;5092540;28;20204;-87
2023/09/10 01:09:27;;;;;;;6.70;5.33;;;16.50;1.00;;;;;;5093131;28;20176;-88
2023/09/10 01:12:35;;;;;;;6.43;5.00;;;16.50;99.90;;;;;;5092104;28;20203;-87
2023/09/10 01:15:03;;;;;;;5.20;4.70;;;16.30;1.00;;;;;;5079877;28;20647;-88
2023/09/10 01:17:38;;;;;;;6.07;5.53;;;16.10;1.00;;;;;;5092832;28;20310;-88
2023/09/10 01:20:38;;;;;;;6.90;5.43;;;16.00;1.00;;;;;;5092016;28;20251;-88
2023/09/10 01:23:11;;;;;;;5.30;4.80;;;16.00;1.00;;;;;;5093763;28;20259;-87
2023/09/10 01:25:37;;;;;;;6.23;5.33;;;16.10;1.00;;;;;;5092556;28;20172;-88
2023/09/10 01:28:03;;;;;;;6.77;5.50;;;15.90;1.00;;;;;;5092170;28;20203;-87
2023/09/10 01:30:30;;;;;;;5.73;5.07;;;15.80;1.00;;;;;;5093314;28;20184;-87
2023/09/10 01:33:08;;;;;;;5.90;5.07;;;15.80;1.00;;;;;;5092387;28;20200;-87
2023/09/10 01:35:43;;;;;;;5.47;4.97;;;15.70;1.00;;;;;;5092661;28;20168;-87
2023/09/10 01:38:23;;;;;;;5.73;5.23;;;15.60;25.80;;;;;;5093618;28;20191;-87
2023/09/10 01:41:12;;;;;;;5.73;5.23;;;15.60;29.40;;;;;;5092878;28;20181;-87
2023/09/10 01:43:37;;;;;;;5.43;4.93;;;15.70;1.00;;;;;;5107760;28;20195;-88
2023/09/10 01:46:05;;;;;;;5.40;4.90;;;15.50;31.40;;;;;;5093383;28;20528;-87
2023/09/10 01:48:31;;;;;;;5.13;4.63;;;15.50;76.60;;;;;;5088778;28;20196;-87
2023/09/10 01:50:56;;;;;;;4.80;4.40;;;15.40;1.00;;;;;;5072446;28;20173;-87
2023/09/10 01:53:22;;;;;;;6.40;4.50;;;15.30;25.90;;;;;;5071761;28;20230;-87
2023/09/10 01:55:48;;;;;;;5.30;4.80;;;15.30;1.00;;;;;;5071776;28;20169;-88
2023/09/10 01:58:14;;;;;;;7.97;5.50;;;15.20;94.80;;;;;;5089412;28;20192;-87
2023/09/10 02:00:40;;;;;;;5.97;5.37;;;15.20;99.90;;;;;;5090087;28;20196;-88
2023/09/10 02:03:06;;;;;;;7.23;5.40;;;15.30;99.90;;;;;;5094965;28;20156;-88
2023/09/10 02:05:32;;;;;;;5.87;5.00;;;15.40;99.90;;;;;;5095210;28;20268;-88
2023/09/10 02:07:57;;;;;;;5.33;4.77;;;15.40;53.80;;;;;;5071983;28;20227;-87
2023/09/10 02:10:23;;;;;;;5.73;5.13;;;15.40;38.30;;;;;;5071252;28;20173;-88
2023/09/10 02:12:49;;;;;;;5.60;5.10;;;15.30;45.70;;;;;;5073022;28;20204;-87
2023/09/10 02:15:17;;;;;;;5.53;4.90;;;15.30;90.30;;;;;;5071889;28;20227;-87
2023/09/10 02:17:42;;;;;;;5.43;4.93;;;15.30;99.90;;;;;;5077153;28;20204;-87
2023/09/10 02:20:09;;;;;;;7.07;5.33;;;15.20;99.90;;;;;;5082836;28;20173;-88
2023/09/10 02:22:39;;;;;;;8.63;5.50;;;15.20;99.90;;;;;;5071494;28;20195;-87
2023/09/10 02:25:06;;;;;;;5.63;4.97;;;15.30;99.90;;;;;;5071357;28;20181;-87
2023/09/10 02:27:32;;;;;;;5.67;5.03;;;15.30;16.00;;;;;;5072619;28;20193;-87
2023/09/10 02:29:58;;;;;;;6.03;5.43;;;15.30;75.60;;;;;;5072258;28;20264;-87
2023/09/10 02:32:25;;;;;;;5.73;5.20;;;15.30;99.90;;;;;;5072423;28;20204;-87
2023/09/10 02:34:53;;;;;;;5.90;5.40;;;15.40;41.70;;;;;;5071337;28;20173;-87
2023/09/10 02:37:19;;;;;;;6.27;5.67;;;15.60;1.00;;;;;;5071175;28;20200;-88
2023/09/10 02:39:45;;;;;;;6.97;5.53;;;15.70;1.00;;;;;;5071207;28;20173;-87
2023/09/10 02:42:10;;;;;;;6.13;5.50;;;15.70;1.00;;;;;;5071213;28;20226;-87
2023/09/10 02:44:36;;;;;;;5.93;5.30;;;15.70;1.00;;;;;;5072414;28;20252;-88
2023/09/10 02:47:02;;;;;;;5.83;5.20;;;15.80;1.00;;;;;;5074254;28;20545;-87
2023/09/10 02:49:27;;;;;;;6.07;5.33;;;15.80;1.00;;;;;;5076744;28;20181;-88
2023/09/10 02:51:54;;;;;;;5.40;4.90;;;15.50;1.00;;;;;;5076631;28;20222;-87
2023/09/10 02:54:19;;;;;;;6.33;5.30;;;15.40;1.00;;;;;;5076798;28;20662;-87
2023/09/10 02:56:45;;;;;;;6.00;5.40;;;15.40;1.00;;;;;;5076306;28;20279;-87
2023/09/10 02:59:26;;;;;;;6.20;5.60;;;15.50;1.00;;;;;;5075395;28;20632;-87
2023/09/10 03:01:52;;;;;;;5.83;5.17;;;15.30;1.00;;;;;;5074469;28;20177;-88
2023/09/10 03:04:18;;;;;;;7.93;5.60;;;15.10;1.00;;;;;;5077119;28;20169;-87
2023/09/10 03:06:48;;;;;;;5.90;5.40;;;15.00;29.60;;;;;;5089877;28;20215;-87
2023/09/10 03:09:14;;;;;;;6.23;5.63;;;14.90;95.80;;;;;;5076043;28;20173;-87
2023/09/10 03:11:41;;;;;;;5.97;5.37;;;15.00;99.90;;;;;;5074563;28;20231;-87
2023/09/10 03:14:08;;;;;;;6.10;5.50;;;15.20;6.80;;;;;;5076037;28;20254;-87
2023/09/10 03:16:36;;;;;;;6.00;5.37;;;15.40;1.00;;;;;;5076145;28;20189;-87
2023/09/10 03:19:02;;;;;;;6.20;4.97;;;15.20;1.00;;;;;;5076136;28;20161;-87
2023/09/10 03:21:27;;;;;;;7.53;4.93;;;15.10;1.00;;;;;;5074473;28;20189;-87
2023/09/10 03:23:54;;;;;;;5.80;5.20;;;15.00;49.40;;;;;;5076028;28;20172;-88
2023/09/10 03:26:20;;;;;;;6.07;5.47;;;14.90;99.90;;;;;;5075733;28;20204;-88
2023/09/10 03:28:46;;;;;;;6.53;5.60;;;14.90;99.90;;;;;;5074494;28;20180;-87
2023/09/10 03:31:11;;;;;;;6.10;5.50;;;14.90;99.90;;;;;;5075010;28;20559;-87
2023/09/10 03:33:37;;;;;;;5.67;5.17;;;15.00;99.90;;;;;;5074728;28;20173;-87
2023/09/10 03:36:03;;;;;;;5.90;5.30;;;15.20;28.70;;;;;;5074679;28;20639;-86
2023/09/10 03:38:29;;;;;;;5.73;5.10;;;15.30;1.00;;;;;;5074505;28;20204;-87
2023/09/10 03:40:54;;;;;;;5.73;5.07;;;15.40;1.00;;;;;;5073901;28;20177;-86
2023/09/10 03:43:20;;;;;;;5.67;4.90;;;15.40;1.00;;;;;;5074372;28;20255;-87
2023/09/10 03:45:46;;;;;;;5.70;5.00;;;15.20;1.00;;;;;;5074085;28;20173;-87
2023/09/10 03:48:12;;;;;;;5.70;5.07;;;15.00;1.00;;;;;;5073974;28;20232;-87
2023/09/10 03:50:38;;;;;;;5.80;5.20;;;14.90;13.20;;;;;;5073493;28;20181;-87
2023/09/10 03:53:04;;;;;;;5.97;5.37;;;14.90;99.90;;;;;;5074346;28;20204;-87
2023/09/10 03:55:29;;;;;;;5.90;5.30;;;15.00;21.40;;;;;;5074175;28;20180;-87
2023/09/10 03:57:55;;;;;;;5.63;5.13;;;15.00;1.00;;;;;;5073225;28;20208;-87
2023/09/10 04:00:20;;;;;;;6.03;5.43;;;15.00;2.50;;;;;;5073327;28;20583;-87
2023/09/10 04:02:46;;;;;;;6.97;5.60;;;14.80;1.00;;;;;;5073843;28;20183;-87
2023/09/10 04:05:12;;;;;;;6.43;5.80;;;14.70;98.70;;;;;;5074278;28;20207;-88
2023/09/10 04:07:38;;;;;;;7.20;6.00;;;14.70;99.90;;;;;;5075963;28;20239;-87
2023/09/10 04:10:06;;;;;;;6.67;5.97;;;14.70;99.90;;;;;;5073481;28;20256;-87
2023/09/10 04:12:31;;;;;;;6.80;6.10;;;14.70;99.90;;;;;;5073752;28;20204;-87
2023/09/10 04:14:57;;;;;;;6.20;5.60;;;14.60;99.90;;;;;;5075313;28;20255;-86
2023/09/10 04:17:23;;;;;;;6.50;5.80;;;14.50;99.90;;;;;;5074052;28;20197;-88
2023/09/10 04:19:48;;;;;;;7.30;6.10;;;14.50;99.90;;;;;;5073278;28;20591;-86
2023/09/10 04:22:14;;;;;;;6.40;5.23;;;14.70;99.90;;;;;;5073566;28;20620;-87
2023/09/10 04:24:40;;;;;;;6.20;5.60;;;14.80;99.90;;;;;;5073581;28;20168;-87
2023/09/10 04:27:06;;;;;;;5.93;5.33;;;14.90;35.20;;;;;;5075003;28;20575;-87
2023/09/10 04:29:32;;;;;;;6.33;5.73;;;14.80;6.40;;;;;;5073440;28;20647;-87
2023/09/10 04:31:57;;;;;;;5.67;5.10;;;14.80;1.00;;;;;;5073116;28;20232;-87
2023/09/10 04:34:23;;;;;;;6.10;5.50;;;14.80;1.00;;;;;;5074775;28;20217;-87
2023/09/10 04:36:48;;;;;;;6.40;5.20;;;14.90;39.80;;;;;;5073082;28;20196;-87
2023/09/10 04:39:14;;;;;;;6.17;5.57;;;14.80;99.90;;;;;;5074626;28;20201;-87
2023/09/10 04:41:39;;;;;;;6.10;5.30;;;14.70;99.90;;;;;;5074167;28;20181;-87
2023/09/10 04:44:05;;;;;;;6.10;5.40;;;14.70;99.90;;;;;;5073512;28;20169;-88
2023/09/10 04:46:31;;;;;;;5.97;5.27;;;14.70;28.50;;;;;;5074268;28;20181;-87
2023/09/10 04:49:00;;;;;;;7.67;5.67;;;14.60;82.60;;;;;;5073403;28;20230;-87
2023/09/10 04:51:25;;;;;;;5.27;4.77;;;14.60;99.90;;;;;;5073488;28;20597;-87
2023/09/10 04:53:51;;;;;;;5.87;5.30;;;14.50;1.00;;;;;;5072945;28;20223;-87
2023/09/10 04:56:17;;;;;;;5.70;5.07;;;14.60;69.30;;;;;;5074056;28;20227;-87
2023/09/10 04:58:42;;;;;;;5.83;5.07;;;14.60;21.80;;;;;;5073833;28;20169;-87
2023/09/10 05:01:08;;;;;;;6.60;5.10;;;14.60;98.70;;;;;;5072518;28;20176;-86
2023/09/10 05:03:34;;;;;;;5.77;4.87;;;14.50;34.50;;;;;;5072800;28;20260;-87
2023/09/10 05:06:01;;;;;;;5.70;4.97;;;14.40;29.30;;;;;;5072754;28;20249;-87
2023/09/10 05:08:27;;;;;;;6.13;5.53;;;14.30;99.90;;;;;;5073921;28;20212;-85
2023/09/10 05:10:53;;;;;;;6.50;5.90;;;14.20;99.90;;;;;;5074141;28;20173;-85
2023/09/10 05:13:19;;;;;;;5.30;4.80;;;14.20;99.90;;;;;;5073967;28;20709;-85
2023/09/10 05:15:48;;;;;;;5.67;4.90;;;14.30;99.90;;;;;;5073888;28;20169;-85
2023/09/10 05:18:15;;;;;;;5.20;4.70;;;14.30;99.90;;;;;;5074325;28;20195;-85
2023/09/10 05:20:40;;;;;;;7.90;5.07;;;14.30;99.90;;;;;;5074827;28;20180;-85
2023/09/10 05:23:06;;;;;;;5.90;5.00;;;14.20;99.90;;;;;;5073626;28;20173;-85
2023/09/10 05:25:36;;;;;;;5.80;5.30;;;14.20;99.90;;;;;;5073508;28;20198;-85
2023/09/10 05:28:03;;;;;;;5.90;5.27;;;14.20;99.90;;;;;;5072545;28;20196;-85
2023/09/10 05:30:29;;;;;;;7.20;5.70;;;14.30;99.90;;;;;;5073429;28;20272;-87
2023/09/10 05:32:55;;;;;;;6.47;5.70;;;14.40;99.90;;;;;;5093861;28;20239;-86
2023/09/10 05:35:21;;;;;;;6.57;5.33;;;14.50;99.90;;;;;;5076257;28;20176;-85
2023/09/10 05:37:46;;;;;;;5.83;5.27;;;14.60;99.90;;;;;;5072114;28;20208;-87
2023/09/10 05:40:12;;;;;;;5.30;4.80;;;14.60;99.90;;;;;;5070931;28;20204;-87
2023/09/10 05:42:38;;;;;;;5.50;5.00;;;14.70;99.90;;;;;;5072451;28;20575;-87
2023/09/10 05:45:04;;;;;;;5.63;4.83;;;14.70;99.90;;;;;;5071424;28;20215;-90
2023/09/10 05:47:29;;;;;;;5.43;4.93;;;14.70;99.90;;;;;;5071155;28;20197;-87
2023/09/10 05:49:55;;;;;;;6.40;5.70;;;14.60;99.90;;;;;;5076792;28;20188;-86
2023/09/10 05:52:20;;;;;;;5.53;5.03;;;16.90;99.90;;;;;;5091202;28;20222;-88
2023/09/10 05:54:46;;;;;;;4.50;4.10;;;17.80;99.90;;;;;;5092831;28;20168;-89
2023/09/10 05:57:11;;;;;;;5.47;4.50;;;18.30;37.70;;;;;;5091398;28;20241;-89
2023/09/10 05:59:37;;;;;;;5.10;4.57;;;18.70;1.00;;;;;;5091255;28;20267;-89
2023/09/10 06:02:03;;;;;;;4.87;4.37;;;18.90;1.00;;;;;;5092524;28;20192;-88
2023/09/10 06:04:28;;;;;;;5.83;5.07;;;19.10;1.00;;;;;;5093439;28;20176;-88
2023/09/10 06:06:54;;;;;;;4.50;4.10;;;19.00;1.00;;;;;;5092309;28;20568;-86
2023/09/10 06:09:21;;;;;;;5.60;4.70;;;19.00;1.00;;;;;;5092001;28;20349;-86
2023/09/10 06:11:46;;;;;;;4.40;4.00;;;19.60;1.00;;;;;;5105057;28;20224;-86
2023/09/10 06:14:12;;;;;;;5.20;4.70;;;20.10;1.00;;;;;;5109690;28;20164;-85
2023/09/10 06:16:37;;;;;;;5.23;4.80;;;20.30;1.00;;;;;;5107918;28;20188;-85
2023/09/10 06:19:03;;;;;;;5.75;4.70;;;20.40;1.00;;;;;;5093677;28;20179;-87
2023/09/10 06:21:29;;;;;;;9.75;4.93;;;20.50;1.00;;;;;;5091666;28;20180;-83
2023/09/10 06:23:55;;;;;;;6.25;5.18;;;20.30;99.90;;;;;;5092325;28;20176;-88
2023/09/10 06:26:20;;;;;;;6.10;4.93;;;19.90;1.00;;;;;;5090913;28;20183;-87
2023/09/10 06:28:46;;;;;;;4.88;4.40;;;19.20;1.00;;;;;;5090797;28;20176;-87
2023/09/10 06:31:12;;;;;;;5.32;4.47;;;19.50;99.90;;;;;;5091321;28;20184;-87
2023/09/10 06:33:37;;;;;;;4.78;4.28;;;19.90;99.90;;;;;;5090940;28;20165;-87
2023/09/10 06:36:03;;;;;;;6.75;4.40;;;20.10;99.90;;;;;;5090959;28;20229;-87
2023/09/10 06:38:29;;;;;;;5.80;5.00;;;20.30;1.00;;;;;;5092160;28;20192;-86
2023/09/10 06:40:54;;;;;;;5.38;4.88;;;20.50;1.00;;;;;;5092087;28;20169;-84
2023/09/10 06:43:20;;;;;;;6.38;4.82;;;20.60;1.00;;;;;;5092033;28;20176;-87
2023/09/10 06:45:45;;;;;;;6.60;5.80;;;20.60;99.90;;;;;;5092261;28;20211;-86
2023/09/10 06:48:11;;;;;;;4.75;4.28;;;20.50;99.90;;;;;;5090815;28;20207;-85
2023/09/10 06:50:37;;;;;;;6.13;4.82;;;20.40;1.00;;;;;;5090362;28;20176;-84
2023/09/10 06:53:02;;;;;;;6.05;5.32;;;20.70;1.00;;;;;;5090802;28;20215;-88
2023/09/10 06:55:28;;;;;;;5.70;4.45;;;20.70;1.00;;;;;;5090598;28;20545;-85
2023/09/10 06:57:55;;;;;;;5.97;5.25;;;20.90;1.00;;;;;;5090464;28;20227;-88
2023/09/10 07:00:21;;;;;;;6.13;5.53;;;21.10;1.00;;;;;;5090353;28;20164;-87
2023/09/10 07:02:46;;;;;;;6.32;5.20;;;21.20;1.00;;;;;;5090616;28;20259;-86
2023/09/10 07:05:12;;;;;;;6.93;5.40;;;21.20;1.00;;;;;;5090773;28;20196;-86
2023/09/10 07:07:38;;;;;;;6.43;5.82;;;21.20;2.80;;;;;;5090493;28;20212;-86
2023/09/10 07:10:03;;;;;;;6.32;5.72;;;21.10;1.00;;;;;;5091320;28;20207;-87
2023/09/10 07:12:29;;;;;;;7.28;6.43;;;21.10;99.90;;;;;;5090295;28;20211;-87
2023/09/10 07:14:55;;;;;;;7.57;5.70;;;21.20;99.90;;;;;;5090575;28;20174;-87
2023/09/10 07:17:20;;;;;;;6.45;5.85;;;21.20;1.00;;;;;;5091527;28;20184;-87
2023/09/10 07:19:46;;;;;;;8.68;7.75;;;21.20;1.00;;;;;;5086849;28;20176;-87
2023/09/10 07:22:13;;;;;;;6.85;6.10;;;20.90;99.90;;;;;;5083046;28;20174;-87
2023/09/10 07:24:39;;;;;;;7.35;6.32;;;20.80;99.90;;;;;;5091508;28;20180;-87
2023/09/10 07:27:05;;;;;;;8.40;6.78;;;21.00;99.90;;;;;;5091677;28;20210;-86
2023/09/10 07:29:30;;;;;;;7.15;5.80;;;21.20;1.00;;;;;;5091555;28;20200;-87
2023/09/10 07:31:56;;;;;;;8.75;6.22;;;21.30;1.00;;;;;;5090702;28;20200;-90
2023/09/10 07:34:21;;;;;;;8.15;7.35;;;21.30;1.00;;;;;;5092135;28;20171;-87
2023/09/10 07:36:47;;;;;;;9.48;8.57;;;21.20;99.90;;;;;;5093873;28;20198;-86
2023/09/10 07:39:13;;;;;;;6.60;5.97;;;20.80;1.00;;;;;;5095178;28;20218;-87
2023/09/10 07:41:39;;;;;;;6.90;6.20;;;20.70;1.00;;;;;;5095102;28;20173;-86
2023/09/10 07:44:05;;;;;;;7.40;6.70;;;20.80;1.00;;;;;;5093160;28;20186;-87
2023/09/10 07:46:32;;;;;;;8.43;6.93;;;21.20;1.00;;;;;;5093735;28;20666;-87
2023/09/10 07:48:57;;;;;;;6.97;6.28;;;21.20;99.90;;;;;;5093685;28;20180;-87
2023/09/10 07:51:23;;;;;;;7.72;6.90;;;21.20;1.00;;;;;;5085974;28;20219;-87
2023/09/10 07:53:48;;;;;;;8.38;7.68;;;21.10;99.90;;;;;;5094706;28;20169;-86
2023/09/10 07:56:14;;;;;;;6.80;6.00;;;21.40;1.00;;;;;;5093500;28;20176;-86
2023/09/10 07:58:39;;;;;;;9.25;6.50;;;21.50;99.90;;;;;;5094667;28;20176;-87
2023/09/10 08:01:05;;;;;;;9.35;6.88;;;21.80;1.00;;;;;;5092882;28;20172;-86
2023/09/10 08:03:31;;;;;;;7.55;6.53;;;21.70;24.70;;;;;;5094558;28;20205;-86
2023/09/10 08:05:56;;;;;;;8.20;6.85;;;21.80;1.00;;;;;;5086269;28;20538;-86
2023/09/10 08:08:22;;;;;;;7.57;6.78;;;22.00;1.00;;;;;;5092331;28;20277;-86
2023/09/10 08:10:47;;;;;;;9.23;8.25;;;22.00;99.90;;;;;;5078936;28;20173;-88
2023/09/10 08:13:13;;;;;;;7.38;6.68;;;21.90;99.90;;;;;;5074301;28;20208;-87
2023/09/10 08:15:42;;;;;;;9.10;8.20;;;21.80;1.00;;;;;;5073342;28;20169;-87
2023/09/10 08:18:11;;;;;;;9.32;8.35;;;21.80;1.00;;;;;;5074625;28;20189;-86
2023/09/10 08:20:40;;;;;;;9.23;8.40;;;21.70;1.00;;;;;;5074604;28;20169;-86
2023/09/10 08:23:07;;;;;;;8.77;7.90;;;21.70;99.90;;;;;;5084160;28;20650;-88
2023/09/10 08:25:32;;;;;;;8.77;7.53;;;21.70;1.00;;;;;;5093154;28;20308;-87
2023/09/10 08:27:59;;;;;;;7.03;6.20;;;21.80;99.90;;;;;;5092862;28;20238;-89
2023/09/10 08:30:25;;;;;;;7.90;7.07;;;22.10;99.90;;;;;;5092140;28;20265;-87
2023/09/10 08:32:51;;;;;;;7.90;7.10;;;22.40;99.90;;;;;;5092795;28;20204;-86
2023/09/10 08:35:18;;;;;;;7.75;6.95;;;22.50;99.90;;;;;;5092744;28;20177;-88
2023/09/10 08:37:44;;;;;;;7.63;6.93;;;22.60;1.00;;;;;;5092593;28;20184;-86
2023/09/10 08:40:10;;;;;;;7.45;6.55;;;22.70;99.90;;;;;;5092330;28;20175;-86
2023/09/10 08:42:54;;;;;;;8.93;7.03;;;22.80;99.90;;;;;;5074015;28;20237;-87
2023/09/10 08:45:21;;;;;;;7.03;6.35;;;23.00;1.00;;;;;;5073272;28;20204;-86
2023/09/10 08:47:49;;;;;;;8.77;6.78;;;23.10;99.90;;;;;;5090650;28;20204;-87
2023/09/10 08:50:15;;;;;;;7.28;6.47;;;23.20;99.90;;;;;;5075450;28;20173;-86
2023/09/10 08:52:43;;;;;;;7.13;6.43;;;23.50;73.00;;;;;;5072140;28;20212;-86
2023/09/10 08:55:13;;;;;;;7.05;6.35;;;23.70;99.90;;;;;;5072106;28;20169;-88
2023/09/10 08:57:40;;;;;;;8.35;5.78;;;23.90;99.90;;;;;;5071986;28;20204;-86
2023/09/10 09:00:12;;;;;;;6.90;6.30;;;24.10;1.00;;;;;;5084428;28;20180;-86
2023/09/10 09:02:44;;;;;;;6.47;5.88;;;24.00;49.40;;;;;;5084137;28;20678;-88
2023/09/10 09:05:11;;;;;;;6.70;6.00;;;24.10;99.90;;;;;;5092570;28;20210;-87
2023/09/10 09:07:51;;;;;;;5.85;5.35;;;24.20;1.00;;;;;;5091971;28;20292;-86
2023/09/10 09:10:25;;;;;;;6.50;5.90;;;24.20;99.90;;;;;;5091622;28;20176;-87
2023/09/10 09:12:56;;;;;;;7.20;5.38;;;24.50;1.00;;;;;;5092064;28;20195;-87
2023/09/10 09:15:23;;;;;;;6.00;5.40;;;24.50;1.00;;;;;;5092196;28;20548;-87
2023/09/10 09:17:50;;;;;;;6.13;5.53;;;24.70;99.90;;;;;;5092961;28;20228;-87
2023/09/10 09:20:18;;;;;;;5.88;5.32;;;24.90;99.90;;;;;;5083175;28;20262;-87
2023/09/10 09:22:47;;;;;;;5.53;4.93;;;25.00;99.90;;;;;;5082866;28;20180;-88
2023/09/10 09:25:14;;;;;;;13.23;5.22;;;25.10;1.00;;;;;;5089154;28;20180;-87
2023/09/10 09:27:40;;;;;;;6.63;4.88;;;25.30;1.00;;;;;;5091984;28;20192;-87
2023/09/10 09:30:06;;;;;;;5.70;4.97;;;25.50;99.90;;;;;;5092663;28;20171;-87
2023/09/10 09:32:37;;;;;;;5.78;5.18;;;25.60;1.00;;;;;;5091799;28;20200;-87
2023/09/10 09:35:12;;;;;;;5.70;4.85;;;25.70;99.90;;;;;;5092287;28;20168;-87
2023/09/10 09:37:37;;;;;;;7.28;4.85;;;25.90;99.90;;;;;;5093123;28;20636;-87
2023/09/10 09:40:04;;;;;;;5.93;4.78;;;26.00;25.30;;;;;;5091410;28;20172;-88
2023/09/10 09:42:29;;;;;;;6.18;5.57;;;26.20;99.90;;;;;;5092037;28;20266;-87
2023/09/10 09:44:55;;;;;;;5.88;5.38;;;26.30;99.90;;;;;;5091870;28;20263;-86
2023/09/10 09:47:21;;;;;;;5.65;5.00;;;26.40;99.90;;;;;;5091843;28;20188;-86
2023/09/10 09:49:50;;;;;;;5.80;5.30;;;26.40;1.00;;;;;;5091319;28;20172;-87
2023/09/10 09:52:18;;;;;;;6.75;5.10;;;26.50;19.50;;;;;;5091295;28;20303;-88
2023/09/10 09:54:47;;;;;;;6.53;5.00;;;26.50;1.00;;;;;;5092551;28;20173;-87
2023/09/10 09:57:13;;;;;;;4.95;4.43;;;26.60;99.90;;;;;;5091461;28;20223;-87
2023/09/10 09:59:39;;;;;;;5.30;4.80;;;26.70;99.90;;;;;;5091551;28;20164;-86
2023/09/10 10:02:04;;;;;;;8.25;5.10;;;26.90;13.90;;;;;;5091886;28;20210;-86
2023/09/10 10:04:33;;;;;;;5.35;4.82;;;27.20;1.00;;;;;;5094109;28;20172;-87
2023/09/10 10:07:01;;;;;;;5.85;5.25;;;27.40;99.90;;;;;;5114623;22;20283;-79
2023/09/10 10:09:36;;;;;;;5.45;4.75;;;27.50;1.00;;;;;;5095073;28;20172;-81
2023/09/10 10:12:04;;;;;;;5.30;4.80;;;27.50;99.90;;;;;;5094946;28;20622;-83
2023/09/10 10:14:34;;;;;;;5.60;4.88;;;27.60;1.00;;;;;;5096669;28;20226;-82
2023/09/10 10:17:01;;;;;;;6.93;4.93;;;27.70;99.90;;;;;;5097220;28;20234;-80
2023/09/10 10:19:31;;;;;;;5.95;4.75;;;27.80;1.00;;;;;;5095551;28;20172;-83
2023/09/10 10:21:57;;;;;;;6.63;4.90;;;28.00;99.90;;;;;;5095547;28;20172;-81
2023/09/10 10:24:23;;;;;;;5.60;5.03;;;28.20;99.90;;;;;;5095081;28;20264;-82
2023/09/10 10:26:51;;;;;;;5.57;4.53;;;28.30;81.20;;;;;;5096535;28;20195;-82
2023/09/10 10:29:22;;;;;;;6.57;4.70;;;28.40;1.00;;;;;;5094986;28;20176;-81
2023/09/10 10:32:18;;;;;;;5.70;5.20;;;28.40;1.00;;;;;;5096336;28;20192;-82
2023/09/10 10:34:56;;;;;;;5.15;4.65;;;28.40;1.00;;;;;;5095000;28;20642;-82
2023/09/10 10:37:40;;;;;;;6.38;4.88;;;28.60;1.00;;;;;;5094151;28;20196;-82
2023/09/10 10:40:19;;;;;;;6.82;4.65;;;28.70;1.00;;;;;;5086821;28;20173;-79
2023/09/10 10:43:01;;;;;;;5.60;5.07;;;29.00;1.00;;;;;;5071733;28;20222;-79
2023/09/10 10:45:29;;;;;;;5.45;4.72;;;29.20;1.00;;;;;;5071304;28;20177;-79
2023/09/10 10:48:00;;;;;;;6.70;4.55;;;29.10;1.00;;;;;;5072285;28;20202;-78
2023/09/10 10:50:26;;;;;;;6.03;4.78;;;29.20;1.00;;;;;;5070876;28;20725;-78
2023/09/10 10:52:59;;;;;;;6.10;4.45;;;29.20;99.90;;;;;;5073108;28;20268;-80
2023/09/10 10:55:26;;;;;;;7.00;5.20;;;29.10;99.90;;;;;;5073776;28;20200;-80
2023/09/10 10:57:53;;;;;;;6.75;5.05;;;29.30;1.00;;;;;;5072347;28;20246;-80
2023/09/10 11:00:20;;;;;;;9.02;5.05;;;29.40;99.90;;;;;;5071254;28;20177;-79
2023/09/10 11:02:48;;;;;;;9.77;4.80;;;29.20;99.90;;;;;;5073117;28;20169;-80
2023/09/10 11:05:14;;;;;;;10.25;4.65;;;28.90;99.90;;;;;;5073034;28;20534;-80
2023/09/10 11:07:40;;;;;;;6.57;4.60;;;29.20;1.00;;;;;;5072700;28;20258;-80
2023/09/10 11:10:24;;;;;;;6.57;5.00;;;29.40;99.90;;;;;;5075203;28;20208;-79
2023/09/10 11:13:05;;;;;;;9.93;4.80;;;29.60;99.90;;;;;;5076616;28;20188;-80
2023/09/10 11:15:31;;;;;;;7.70;4.85;;;29.60;99.90;;;;;;5075351;28;20169;-81
2023/09/10 11:18:34;;;;;;;8.20;4.70;;;29.80;99.90;;;;;;5075495;28;20766;-79
2023/09/10 11:21:03;;;;;;;7.60;4.47;;;30.00;99.90;;;;;;5072702;28;20177;-80
2023/09/10 11:23:30;;;;;;;7.25;4.70;;;30.00;99.90;;;;;;5075165;28;20177;-80
2023/09/10 11:26:14;;;;;;;8.15;4.60;;;30.30;1.00;;;;;;5094809;28;20184;-80
2023/09/10 11:29:03;;;;;;;9.50;4.55;;;30.40;99.90;;;;;;5095458;28;20192;-80
2023/09/10 11:31:37;;;;;;;11.93;4.80;;;30.50;99.90;;;;;;5093832;28;20219;-79
2023/09/10 11:34:15;;;;;;;10.05;4.78;;;30.70;99.90;;;;;;5096306;28;20156;-79
2023/09/10 11:36:49;;;;;;;12.68;4.85;;;30.70;99.90;;;;;;5095843;28;20172;-80
2023/09/10 11:39:16;;;;;;;8.43;4.32;;;30.90;99.90;;;;;;5096208;28;20184;-79
2023/09/10 11:41:47;;;;;;;11.50;4.43;;;31.10;99.90;;;;;;5095575;28;20176;-80
2023/09/10 11:44:12;;;;;;;11.77;4.43;;;31.20;99.90;;;;;;5096586;28;20172;-79
2023/09/10 11:46:38;;;;;;;8.07;4.05;;;31.10;99.90;;;;;;5094423;28;20177;-80
2023/09/10 11:49:04;;;;;;;10.77;4.30;;;31.20;99.90;;;;;;5076704;28;20177;-80
2023/09/10 11:51:30;;;;;;;10.55;4.43;;;31.40;99.90;;;;;;5073686;28;20173;-79
2023/09/10 11:53:57;;;;;;;9.75;3.95;;;31.60;99.90;;;;;;5076641;28;20575;-83
2023/09/10 11:56:24;;;;;;;12.85;4.50;;;31.50;99.90;;;;;;5076691;28;20648;-83
2023/09/10 11:58:49;;;;;;;11.60;4.22;;;31.50;99.90;;;;;;5075641;28;20283;-84
2023/09/10 12:01:15;;;;;;;10.20;4.20;;;31.50;99.90;;;;;;5075851;28;20254;-84
2023/09/10 12:03:44;;;;;;;12.65;4.38;;;31.60;99.90;;;;;;5075435;28;20185;-81
2023/09/10 12:06:12;;;;;;;10.65;4.55;;;31.80;99.90;;;;;;5077765;28;20187;-82
2023/09/10 12:08:38;;;;;;;10.32;4.10;;;31.90;99.90;;;;;;5076172;28;20215;-83
2023/09/10 12:11:08;;;;;;;10.35;4.10;;;32.00;99.90;;;;;;5076813;28;20172;-82
2023/09/10 12:13:35;;;;;;;10.13;4.80;;;32.10;99.90;;;;;;5088675;28;20288;-86
2023/09/10 12:16:01;;;;;;;11.68;4.38;;;32.10;99.90;;;;;;5094394;28;20169;-84
2023/09/10 12:18:27;;;;;;;11.13;4.40;;;32.10;99.90;;;;;;5094532;28;20200;-85
2023/09/10 12:20:53;;;;;;;14.98;4.18;;;31.90;99.90;;;;;;5093851;28;20172;-82
2023/09/10 12:23:19;;;;;;;14.50;4.07;;;31.90;99.90;;;;;;5095201;28;20176;-82
2023/09/10 12:25:56;;;;;;;14.38;4.28;;;32.10;99.90;;;;;;5095779;28;20168;-84
2023/09/10 12:28:23;;;;;;;14.07;4.35;;;32.30;99.90;;;;;;5095322;28;20206;-84
2023/09/10 12:30:49;;;;;;;12.40;4.10;;;32.40;99.90;;;;;;5094522;28;20184;-83
2023/09/10 12:33:15;;;;;;;13.15;4.28;;;32.60;99.90;;;;;;5095967;28;20200;-83
2023/09/10 12:35:41;;;;;;;12.13;4.38;;;32.60;99.90;;;;;;5095696;28;20172;-83
2023/09/10 12:38:06;;;;;;;11.32;4.55;;;32.60;99.90;;;;;;5094337;28;20195;-84
2023/09/10 12:40:32;;;;;;;9.13;4.15;;;32.60;99.90;;;;;;5094382;28;20168;-83
2023/09/10 12:42:59;;;;;;;8.43;4.20;;;32.50;99.90;;;;;;5094922;28;20172;-83
2023/09/10 12:45:25;;;;;;;13.90;4.50;;;32.70;99.90;;;;;;5095048;28;20199;-83
2023/09/10 12:47:50;;;;;;;12.55;4.28;;;32.60;96.20;;;;;;5096406;28;20277;-83
2023/09/10 12:50:16;;;;;;;10.40;4.07;;;32.70;99.90;;;;;;5089175;28;20257;-83
2023/09/10 12:52:42;;;;;;;8.00;3.40;;;33.10;99.10;;;;;;5095578;28;20261;-83